Map

Track Data

SID SEASON NUMBER BASIN SUBBASIN NAME ISO_TIME NATURE LAT LON WMO_WIND WMO_PRES WMO_AGENCY TRACK_TYPE DIST2LAND LANDFALL IFLAG USA_AGENCY USA_ATCF_ID USA_LAT USA_LON USA_RECORD USA_STATUS USA_WIND USA_PRES USA_SSHS USA_R34_NE USA_R34_SE USA_R34_SW USA_R34_NW USA_R50_NE USA_R50_SE USA_R50_SW USA_R50_NW USA_R64_NE USA_R64_SE USA_R64_SW USA_R64_NW USA_POCI USA_ROCI USA_RMW USA_EYE TOKYO_LAT TOKYO_LON TOKYO_GRADE TOKYO_WIND TOKYO_PRES TOKYO_R50_DIR TOKYO_R50_LONG TOKYO_R50_SHORT TOKYO_R30_DIR TOKYO_R30_LONG TOKYO_R30_SHORT TOKYO_LAND CMA_LAT CMA_LON CMA_CAT CMA_WIND CMA_PRES HKO_LAT HKO_LON HKO_CAT HKO_WIND HKO_PRES NEWDELHI_LAT NEWDELHI_LON NEWDELHI_GRADE NEWDELHI_WIND NEWDELHI_PRES NEWDELHI_CI NEWDELHI_DP NEWDELHI_POCI REUNION_LAT REUNION_LON REUNION_TYPE REUNION_WIND REUNION_PRES REUNION_TNUM REUNION_CI REUNION_RMW REUNION_R34_NE REUNION_R34_SE REUNION_R34_SW REUNION_R34_NW REUNION_R50_NE REUNION_R50_SE REUNION_R50_SW REUNION_R50_NW REUNION_R64_NE REUNION_R64_SE REUNION_R64_SW REUNION_R64_NW BOM_LAT BOM_LON BOM_TYPE BOM_WIND BOM_PRES BOM_TNUM BOM_CI BOM_RMW BOM_R34_NE BOM_R34_SE BOM_R34_SW BOM_R34_NW BOM_R50_NE BOM_R50_SE BOM_R50_SW BOM_R50_NW BOM_R64_NE BOM_R64_SE BOM_R64_SW BOM_R64_NW BOM_ROCI BOM_POCI BOM_EYE BOM_POS_METHOD BOM_PRES_METHOD NADI_LAT NADI_LON NADI_CAT NADI_WIND NADI_PRES WELLINGTON_LAT WELLINGTON_LON WELLINGTON_WIND WELLINGTON_PRES DS824_LAT DS824_LON DS824_STAGE DS824_WIND DS824_PRES TD9636_LAT TD9636_LON TD9636_STAGE TD9636_WIND TD9636_PRES TD9635_LAT TD9635_LON TD9635_WIND TD9635_PRES TD9635_ROCI NEUMANN_LAT NEUMANN_LON NEUMANN_CLASS NEUMANN_WIND NEUMANN_PRES MLC_LAT MLC_LON MLC_CLASS MLC_WIND MLC_PRES USA_GUST BOM_GUST BOM_GUST_PER REUNION_GUST REUNION_GUST_PER USA_SEAHGT USA_SEARAD_NE USA_SEARAD_SE USA_SEARAD_SW USA_SEARAD_NW STORM_SPEED STORM_DIR
1956289N23280 1956 100 NA NA NOT_NAMED 1956-10-14 12:00:00 TS 22.6000 -79.8000 35 hurdat_atl main 0 0 O_____________ hurdat_atl AL111956 22.6000 -79.8000 TS 35 0 4 327
1956289N23280 1956 100 NA NA NOT_NAMED 1956-10-14 15:00:00 TS 22.7550 -79.9099 main 0 0 P_____________ AL111956 22.7550 -79.9099 TS 40 0 4 329
1956289N23280 1956 100 NA NA NOT_NAMED 1956-10-14 18:00:00 TS 22.9000 -80.0000 45 hurdat_atl main 0 0 O_____________ hurdat_atl AL111956 22.9000 -80.0000 TS 45 0 3 334
1956289N23280 1956 100 NA NA NOT_NAMED 1956-10-14 21:00:00 TS 23.0350 -80.0575 main 11 11 P_____________ AL111956 23.0350 -80.0575 TS 47 0 3 344
1956289N23280 1956 100 NA NA NOT_NAMED 1956-10-15 00:00:00 TS 23.2000 -80.1000 50 hurdat_atl main 33 33 O_____________ hurdat_atl AL111956 23.2000 -80.1000 TS 50 0 4 348
1956289N23280 1956 100 NA NA NOT_NAMED 1956-10-15 03:00:00 TS 23.4350 -80.1500 main 55 54 P_____________ AL111956 23.4350 -80.1500 TS 50 0 5 350
1956289N23280 1956 100 NA NA NOT_NAMED 1956-10-15 06:00:00 TS 23.7000 -80.2000 50 hurdat_atl main 84 84 O_____________ hurdat_atl AL111956 23.7000 -80.2000 TS 50 0 5 350
1956289N23280 1956 100 NA NA NOT_NAMED 1956-10-15 09:00:00 TS 23.9425 -80.2426 main 105 101 P_____________ AL111956 23.9425 -80.2426 TS 50 0 5 350
1956289N23280 1956 100 NA NA NOT_NAMED 1956-10-15 12:00:00 TS 24.2000 -80.3000 50 hurdat_atl main 101 67 O_____________ hurdat_atl AL111956 24.2000 -80.3000 TS 50 0 6 345
1956289N23280 1956 100 NA NA NOT_NAMED 1956-10-15 15:00:00 TS 24.4727 -80.3932 main 67 35 P_____________ AL111956 24.4727 -80.3932 TS 50 0 6 343
1956289N23280 1956 100 NA NA NOT_NAMED 1956-10-15 18:00:00 TS 24.8000 -80.5000 50 hurdat_atl main 35 0 O_____________ hurdat_atl AL111956 24.8000 -80.5000 TS 50 0 8 345
1956289N23280 1956 100 NA GM NOT_NAMED 1956-10-15 21:00:00 TS 25.2000 -80.6000 50 hurdat_atl main 0 0 O_____________ hurdat_atl AL111956 25.2000 -80.6000 L TS 50 0 8 354
1956289N23280 1956 100 NA NA NOT_NAMED 1956-10-16 00:00:00 TS 25.6000 -80.6000 55 hurdat_atl main 0 0 O_____________ hurdat_atl AL111956 25.6000 -80.6000 TS 55 0 10 358
1956289N23280 1956 100 NA NA NOT_NAMED 1956-10-16 03:00:00 TS 26.1989 -80.6464 main 0 0 P_____________ AL111956 26.1989 -80.6464 TS 55 0 13 356
1956289N23280 1956 100 NA NA NOT_NAMED 1956-10-16 06:00:00 TS 26.9000 -80.7000 55 hurdat_atl main 0 0 O_____________ hurdat_atl AL111956 26.9000 -80.7000 TS 55 0 14 358
1956289N23280 1956 100 NA NA NOT_NAMED 1956-10-16 09:00:00 TS 27.5725 -80.7150 main 0 0 P_____________ AL111956 27.5725 -80.7150 TS 52 0 13 1
1956289N23280 1956 100 NA NA NOT_NAMED 1956-10-16 12:00:00 TS 28.2000 -80.7000 50 999 hurdat_atl main 0 0 O_____________ hurdat_atl AL111956 28.2000 -80.7000 TS 50 999 0 12 2
1956289N23280 1956 100 NA NA NOT_NAMED 1956-10-16 15:00:00 TS 28.7300 -80.6724 main 0 0 P_____________ AL111956 28.7300 -80.6724 TS 50 998 0 10 5
1956289N23280 1956 100 NA NA NOT_NAMED 1956-10-16 18:00:00 TS 29.2000 -80.6000 50 hurdat_atl main 31 31 I_____________ hurdat_atl AL111956 29.2000 -80.6000 TS 50 998 0 9 10
1956289N23280 1956 100 NA NA NOT_NAMED 1956-10-16 21:00:00 TS 29.6500 -80.4798 main 62 62 P_____________ AL111956 29.6500 -80.4798 TS 50 997 0 9 16
1956289N23280 1956 100 NA NA NOT_NAMED 1956-10-17 00:00:00 TS 30.1000 -80.3000 50 997 hurdat_atl main 101 101 O_____________ hurdat_atl AL111956 30.1000 -80.3000 TS 50 997 0 10 20
1956289N23280 1956 100 NA NA NOT_NAMED 1956-10-17 03:00:00 TS 30.5773 -80.0943 main 124 124 P_____________ AL111956 30.5773 -80.0943 TS 50 996 0 11 23
1956289N23280 1956 100 NA NA NOT_NAMED 1956-10-17 06:00:00 TS 31.1000 -79.8000 50 996 hurdat_atl main 137 121 O_____________ hurdat_atl AL111956 31.1000 -79.8000 TS 50 996 0 13 29
1956289N23280 1956 100 NA NA NOT_NAMED 1956-10-17 09:00:00 TS 31.6700 -79.3872 main 115 90 P_____________ AL111956 31.6700 -79.3872 TS 50 0 14 33
1956289N23280 1956 100 NA NA NOT_NAMED 1956-10-17 12:00:00 TS 32.3000 -78.9000 50 hurdat_atl main 90 73 O_____________ hurdat_atl AL111956 32.3000 -78.9000 TS 50 0 16 33
1956289N23280 1956 100 NA NA NOT_NAMED 1956-10-17 15:00:00 TS 32.9775 -78.3997 main 77 24 P_____________ AL111956 32.9775 -78.3997 TS 50 0 16 31
1956289N23280 1956 100 NA NA NOT_NAMED 1956-10-17 18:00:00 ET 33.7000 -77.9000 50 hurdat_atl main 24 9 O_____________ hurdat_atl AL111956 33.7000 -77.9000 EX 50 -4 17 28
1956289N23280 1956 100 NA NA NOT_NAMED 1956-10-17 21:00:00 ET 34.4646 -77.4566 main 0 0 P_____________ AL111956 34.4646 -77.4566 EX 47 -4 17 26
1956289N23280 1956 100 NA NA NOT_NAMED 1956-10-18 00:00:00 ET 35.2000 -77.0000 45 hurdat_atl main 0 0 O_____________ hurdat_atl AL111956 35.2000 -77.0000 EX 45 -4 16 30
1956289N23280 1956 100 NA NA NOT_NAMED 1956-10-18 03:00:00 ET 35.8296 -76.4863 main 0 0 P_____________ AL111956 35.8296 -76.4863 EX 45 -4 15 37
1956289N23280 1956 100 NA NA NOT_NAMED 1956-10-18 06:00:00 ET 36.4000 -75.9000 45 999 hurdat_atl main 0 0 O_____________ hurdat_atl AL111956 36.4000 -75.9000 EX 45 999 -4 15 40
1956289N23280 1956 100 NA NA NOT_NAMED 1956-10-18 09:00:00 ET 36.9631 -75.3027 main 54 54 P_____________ AL111956 36.9631 -75.3027 EX 45 -4 16 45
1956289N23280 1956 100 NA NA NOT_NAMED 1956-10-18 12:00:00 ET 37.5000 -74.5000 45 hurdat_atl main 93 93 O_____________ hurdat_atl AL111956 37.5000 -74.5000 EX 45 -4 18 54
1956289N23280 1956 100 NA NA NOT_NAMED 1956-10-18 15:00:00 ET 38.0266 -73.4436 main 151 149 P_____________ AL111956 38.0266 -73.4436 EX 45 -4 22 63
1956289N23280 1956 100 NA NA NOT_NAMED 1956-10-18 18:00:00 ET 38.5000 -72.0000 45 hurdat_atl main 227 227 O_____________ hurdat_atl AL111956 38.5000 -72.0000 EX 45 -4 27 72
1956289N23280 1956 100 NA NA NOT_NAMED 1956-10-18 21:00:00 ET 38.8873 -70.1263 main 293 290 P_____________ AL111956 38.8873 -70.1263 EX 45 -4 32 77
1956289N23280 1956 100 NA NA NOT_NAMED 1956-10-19 00:00:00 ET 39.2000 -68.0000 45 hurdat_atl main 325 O_____________ hurdat_atl AL111956 39.2000 -68.0000 EX 45 -4 34 79

About IBTrACS Database

This database is a web-friendly format of International Best Track Archive for Climate Stewardship (IBTrACS), a global best track data archive curated by NOAA dating back to 1842.

Updated: 2021-12-06